createdAt,value
2023-03-11T00:00:27.099Z,96106.47
2023-03-11T00:02:56.507Z,96114.47
2023-03-11T00:05:23.009Z,96115.84
2023-03-11T00:07:49.369Z,96124.09
2023-03-11T00:10:15.639Z,96131.28
2023-03-11T00:12:41.875Z,96136.91
2023-03-11T00:15:08.108Z,96150.22
2023-03-11T00:17:34.314Z,96145.69
2023-03-11T00:20:00.751Z,96155.56
2023-03-11T00:22:26.969Z,96165.16
2023-03-11T00:24:53.434Z,96171.25
2023-03-11T00:27:19.760Z,96163.59
2023-03-11T00:29:46.072Z,96164.41
2023-03-11T00:32:12.324Z,96179.53
2023-03-11T00:34:38.572Z,96186.44
2023-03-11T00:37:04.850Z,96196.00
2023-03-11T00:39:31.040Z,96192.31
2023-03-11T00:41:58.090Z,96202.69
2023-03-11T00:44:24.313Z,96211.16
2023-03-11T00:46:50.529Z,96208.78
2023-03-11T00:49:16.895Z,96215.66
2023-03-11T00:51:43.090Z,96227.09
2023-03-11T00:54:09.295Z,96213.56
2023-03-11T00:56:35.535Z,96234.53
2023-03-11T00:59:01.737Z,96220.16
2023-03-11T01:01:28.091Z,96245.41
2023-03-11T01:03:54.341Z,96246.16
2023-03-11T01:06:20.706Z,96252.00
2023-03-11T01:08:46.921Z,96257.31
2023-03-11T01:11:13.184Z,96266.56
2023-03-11T01:13:39.423Z,96271.88
2023-03-11T01:16:05.759Z,96285.66
2023-03-11T01:18:31.970Z,96284.31
2023-03-11T01:20:58.383Z,96292.00
2023-03-11T01:23:26.666Z,96298.66
2023-03-11T01:25:52.884Z,96299.19
2023-03-11T01:28:19.111Z,96311.09
2023-03-11T01:30:45.494Z,96320.09
2023-03-11T01:33:11.782Z,96326.72
2023-03-11T01:35:38.193Z,96323.78
2023-03-11T01:38:04.636Z,96333.31
2023-03-11T01:40:30.858Z,96333.28
2023-03-11T01:42:57.205Z,96342.56
2023-03-11T01:45:23.454Z,96340.66
2023-03-11T01:47:49.661Z,96345.44
2023-03-11T01:50:15.889Z,96357.09
2023-03-11T01:52:42.135Z,96360.53
2023-03-11T01:55:08.402Z,96360.25
2023-03-11T01:57:34.623Z,96360.75
2023-03-11T02:00:02.367Z,96364.72
2023-03-11T02:02:28.707Z,96369.72
2023-03-11T02:04:54.979Z,96365.19
2023-03-11T02:07:21.203Z,96372.63
2023-03-11T02:09:47.457Z,96382.13
2023-03-11T02:12:13.857Z,96378.13
2023-03-11T02:14:40.122Z,96398.25
2023-03-11T02:17:06.354Z,96390.78
2023-03-11T02:19:32.611Z,96389.72
2023-03-11T02:21:58.823Z,96392.84
2023-03-11T02:24:25.057Z,96400.25
2023-03-11T02:26:51.465Z,96405.03
2023-03-11T02:29:17.831Z,96401.00
2023-03-11T02:31:44.166Z,96408.63
2023-03-11T02:34:10.453Z,96403.84
2023-03-11T02:36:36.686Z,96413.91
2023-03-11T02:39:02.945Z,96410.16
2023-03-11T02:41:29.194Z,96419.16
2023-03-11T02:43:55.584Z,96424.97
2023-03-11T02:46:21.961Z,96422.78
2023-03-11T02:48:48.243Z,96428.59
2023-03-11T02:51:14.559Z,96443.94
2023-03-11T02:53:40.821Z,96434.88
2023-03-11T02:56:07.046Z,96446.00
2023-03-11T02:58:34.590Z,96449.13
2023-03-11T03:01:01.074Z,96453.31
2023-03-11T03:03:27.455Z,96452.78
2023-03-11T03:05:53.791Z,96452.25
2023-03-11T03:08:20.054Z,96458.00
2023-03-11T03:10:46.401Z,96467.03
2023-03-11T03:13:12.699Z,96455.88
2023-03-11T03:15:39.009Z,96461.41
2023-03-11T03:18:05.380Z,96473.28
2023-03-11T03:20:31.705Z,96470.91
2023-03-11T03:22:57.985Z,96482.78
2023-03-11T03:25:24.299Z,96483.81
2023-03-11T03:27:50.538Z,96494.91
2023-03-11T03:30:16.787Z,96484.84
2023-03-11T03:32:43.082Z,96500.16
2023-03-11T03:35:09.300Z,96510.16
2023-03-11T03:37:35.565Z,96513.31
2023-03-11T03:40:02.111Z,96514.59
2023-03-11T03:42:28.369Z,96514.03
2023-03-11T03:44:54.588Z,96533.88
2023-03-11T03:47:21.910Z,96521.09
2023-03-11T03:49:48.152Z,96524.25
2023-03-11T03:52:14.379Z,96525.56
2023-03-11T03:54:40.578Z,96533.19
2023-03-11T03:57:06.811Z,96534.44
2023-03-11T03:59:35.167Z,96532.88
2023-03-11T04:02:01.410Z,96533.31
2023-03-11T04:04:27.696Z,96546.81
2023-03-11T04:06:53.914Z,96550.75
2023-03-11T04:09:20.096Z,96552.84
2023-03-11T04:11:46.281Z,96559.41
2023-03-11T04:14:12.526Z,96561.47
2023-03-11T04:16:38.911Z,96561.97
2023-03-11T04:19:05.122Z,96563.03
2023-03-11T04:21:31.315Z,96574.88
2023-03-11T04:23:57.611Z,96568.25
2023-03-11T04:26:24.083Z,96578.25
2023-03-11T04:28:50.358Z,96576.06
2023-03-11T04:31:16.728Z,96580.78
2023-03-11T04:33:43.118Z,96590.00
2023-03-11T04:36:09.499Z,96587.59
2023-03-11T04:38:35.845Z,96591.28
2023-03-11T04:41:02.113Z,96594.97
2023-03-11T04:43:28.423Z,96599.69
2023-03-11T04:45:55.249Z,96606.03
2023-03-11T04:48:21.583Z,96605.44
2023-03-11T04:50:48.018Z,96614.44
2023-03-11T04:53:14.294Z,96608.59
2023-03-11T04:55:40.634Z,96613.31
2023-03-11T04:58:07.025Z,96614.31
2023-03-11T05:00:33.393Z,96617.22
2023-03-11T05:02:59.717Z,96621.16
2023-03-11T05:05:26.452Z,96621.41
2023-03-11T05:07:55.998Z,96612.91
2023-03-11T05:10:23.173Z,96621.28
2023-03-11T05:12:51.856Z,96633.72
2023-03-11T05:15:18.061Z,96641.06
2023-03-11T05:17:44.342Z,96634.19
2023-03-11T05:20:10.570Z,96644.97
2023-03-11T05:22:36.810Z,96645.22
2023-03-11T05:25:02.996Z,96644.66
2023-03-11T05:27:29.195Z,96652.03
2023-03-11T05:29:55.449Z,96654.13
2023-03-11T05:32:21.687Z,96661.47
2023-03-11T05:34:47.940Z,96664.59
2023-03-11T05:37:14.201Z,96671.94
2023-03-11T05:39:40.627Z,96674.00
2023-03-11T05:42:07.055Z,96675.28
2023-03-11T05:44:33.282Z,96683.44
2023-03-11T05:46:59.909Z,96687.38
2023-03-11T05:49:26.123Z,96693.09
2023-03-11T05:51:52.383Z,96694.16
2023-03-11T05:54:18.634Z,96693.81
2023-03-11T05:56:44.831Z,96694.88
2023-03-11T05:59:11.088Z,96691.66
2023-03-11T06:01:37.320Z,96703.22
2023-03-11T06:04:03.712Z,96706.91
2023-03-11T06:06:30.110Z,96711.41
2023-03-11T06:08:56.304Z,96716.69
2023-03-11T06:11:22.535Z,96714.28
2023-03-11T06:13:48.770Z,96721.16
2023-03-11T06:16:15.103Z,96719.56
2023-03-11T06:18:41.344Z,96726.66
2023-03-11T06:21:07.617Z,96730.34
2023-03-11T06:23:33.840Z,96733.81
2023-03-11T06:26:00.168Z,96737.47
2023-03-11T06:28:26.491Z,96737.47
2023-03-11T06:30:53.000Z,96739.88
2023-03-11T06:33:19.198Z,96747.00
2023-03-11T06:35:45.454Z,96752.28
2023-03-11T06:38:14.216Z,96759.63
2023-03-11T06:40:40.471Z,96767.56
2023-03-11T06:43:06.687Z,96763.06
2023-03-11T06:45:33.115Z,96760.22
2023-03-11T06:47:59.357Z,96774.78
2023-03-11T06:50:25.565Z,96772.56
2023-03-11T06:52:51.779Z,96789.25
2023-03-11T06:55:17.981Z,96784.44
2023-03-11T06:57:44.231Z,96783.63
2023-03-11T07:00:10.527Z,96780.97
2023-03-11T07:02:36.835Z,96788.09
2023-03-11T07:05:03.121Z,96798.66
2023-03-11T07:07:29.449Z,96801.28
2023-03-11T07:09:55.980Z,96800.50
2023-03-11T07:12:22.877Z,96811.84
2023-03-11T07:14:49.503Z,96813.72
2023-03-11T07:17:15.815Z,96819.00
2023-03-11T07:19:42.186Z,96820.59
2023-03-11T07:22:08.470Z,96831.16
2023-03-11T07:24:35.325Z,96828.50
2023-03-11T07:27:01.643Z,96833.09
2023-03-11T07:29:28.012Z,96833.88
2023-03-11T07:31:54.530Z,96829.50
2023-03-11T07:34:20.823Z,96830.78
2023-03-11T07:36:47.311Z,96846.25
2023-03-11T07:39:14.106Z,96833.91
2023-03-11T07:41:40.379Z,96840.31
2023-03-11T07:44:08.090Z,96845.53
2023-03-11T07:46:35.913Z,96847.94
2023-03-11T07:49:02.234Z,96851.84
2023-03-11T07:51:28.726Z,96857.75
2023-03-11T07:53:55.145Z,96851.44
2023-03-11T07:56:21.490Z,96860.25
2023-03-11T07:58:47.862Z,96859.06
2023-03-11T08:01:14.229Z,96863.09
2023-03-11T08:03:40.544Z,96871.09
2023-03-11T08:06:06.878Z,96866.09
2023-03-11T08:08:33.280Z,96874.91
2023-03-11T08:10:59.938Z,96885.34
2023-03-11T08:13:28.763Z,96893.38
2023-03-11T08:15:55.306Z,96905.38
2023-03-11T08:18:21.680Z,96911.84
2023-03-11T08:20:48.043Z,96919.91
2023-03-11T08:23:14.546Z,96940.97
2023-03-11T08:25:40.873Z,96938.34
2023-03-11T08:28:07.375Z,96943.72
2023-03-11T08:30:34.316Z,96950.13
2023-03-11T08:33:00.705Z,96952.28
2023-03-11T08:35:27.089Z,96956.28
2023-03-11T08:37:53.651Z,96960.28
2023-03-11T08:40:19.980Z,96963.50
2023-03-11T08:42:48.778Z,96969.38
2023-03-11T08:45:15.228Z,96980.53
2023-03-11T08:47:41.513Z,96980.06
2023-03-11T08:50:07.844Z,96984.03
2023-03-11T08:52:34.257Z,96986.44
2023-03-11T08:55:00.584Z,96996.06
2023-03-11T08:57:28.949Z,96997.66
2023-03-11T08:59:58.092Z,97002.72
2023-03-11T09:02:24.459Z,97002.72
2023-03-11T09:04:50.892Z,97007.06
2023-03-11T09:07:17.142Z,97015.09
2023-03-11T09:09:43.605Z,97017.63
2023-03-11T09:12:09.924Z,97016.34
2023-03-11T09:14:37.601Z,97015.63
2023-03-11T09:17:04.902Z,97015.19
2023-03-11T09:19:31.187Z,97016.88
2023-03-11T09:21:57.602Z,97033.47
2023-03-11T09:24:24.052Z,97025.91
2023-03-11T09:26:50.387Z,97033.41
2023-03-11T09:29:16.708Z,97033.78
2023-03-11T09:31:43.042Z,97033.81
2023-03-11T09:34:09.388Z,97037.63
2023-03-11T09:36:35.602Z,97036.84
2023-03-11T09:39:01.950Z,97035.00
2023-03-11T09:41:28.256Z,97054.47
2023-03-11T09:43:54.569Z,97055.28
2023-03-11T09:46:20.931Z,97056.84
2023-03-11T09:48:47.396Z,97068.63
2023-03-11T09:51:13.698Z,97075.28
2023-03-11T09:53:40.006Z,97076.34
2023-03-11T09:56:06.405Z,97073.94
2023-03-11T09:58:32.719Z,97081.94
2023-03-11T10:00:59.042Z,97073.94
2023-03-11T10:03:25.741Z,97064.88
2023-03-11T10:05:52.057Z,97066.47
2023-03-11T10:08:18.426Z,97067.03
2023-03-11T10:10:44.740Z,97065.41
2023-03-11T10:13:10.952Z,97057.66
2023-03-11T10:15:39.374Z,97062.47
2023-03-11T10:18:05.854Z,97068.34
2023-03-11T10:20:32.129Z,97065.69
2023-03-11T10:22:58.327Z,97065.66
2023-03-11T10:25:24.601Z,97064.59
2023-03-11T10:27:50.873Z,97068.06
2023-03-11T10:30:17.151Z,97062.72
2023-03-11T10:32:43.545Z,97060.34
2023-03-11T10:35:09.859Z,97057.66
2023-03-11T10:37:48.826Z,97055.00
2023-03-11T10:40:16.219Z,97058.44
2023-03-11T10:42:42.637Z,97052.56
2023-03-11T10:45:09.350Z,97060.59
2023-03-11T10:47:38.005Z,97055.78
2023-03-11T10:50:04.330Z,97057.94
2023-03-11T10:52:30.658Z,97061.16
2023-03-11T10:54:56.986Z,97065.41
2023-03-11T10:57:25.490Z,97068.09
2023-03-11T10:59:51.799Z,97065.41
2023-03-11T11:02:18.113Z,97068.63
2023-03-11T11:04:44.562Z,97069.44
2023-03-11T11:07:10.896Z,97068.63
2023-03-11T11:09:37.413Z,97064.34
2023-03-11T11:12:03.707Z,97067.03
2023-03-11T11:14:29.988Z,97067.81
2023-03-11T11:16:56.450Z,97068.34
2023-03-11T11:19:22.822Z,97077.41
2023-03-11T11:21:49.236Z,97071.84
2023-03-11T11:24:15.517Z,97076.38
2023-03-11T11:26:41.962Z,97083.84
2023-03-11T11:29:09.079Z,97079.31
2023-03-11T11:31:35.525Z,97083.84
2023-03-11T11:34:01.800Z,97083.84
2023-03-11T11:36:28.027Z,97074.22
2023-03-11T11:38:54.257Z,97084.91
2023-03-11T11:41:20.509Z,97088.94
2023-03-11T11:43:46.876Z,97079.84
2023-03-11T11:46:13.270Z,97075.56
2023-03-11T11:48:39.685Z,97075.56
2023-03-11T11:51:06.012Z,97072.88
2023-03-11T11:53:32.361Z,97071.31
2023-03-11T11:55:58.646Z,97072.88
2023-03-11T11:58:25.065Z,97075.00
2023-03-11T12:00:51.354Z,97073.41
2023-03-11T12:03:17.725Z,97071.28
2023-03-11T12:05:44.256Z,97071.31
2023-03-11T12:08:10.655Z,97076.38
2023-03-11T12:10:36.967Z,97081.69
2023-03-11T12:13:03.712Z,97079.81
2023-03-11T12:15:30.298Z,97080.91
2023-03-11T12:17:59.660Z,97077.44
2023-03-11T12:20:26.041Z,97074.78
2023-03-11T12:22:52.414Z,97081.69
2023-03-11T12:25:21.206Z,97074.50
2023-03-11T12:27:47.548Z,97071.56
2023-03-11T12:30:14.140Z,97071.31
2023-03-11T12:32:40.570Z,97069.41
2023-03-11T12:35:06.990Z,97073.97
2023-03-11T12:37:33.320Z,97081.97
2023-03-11T12:39:59.663Z,97075.56
2023-03-11T12:42:25.956Z,97073.69
2023-03-11T12:44:53.360Z,97071.56
2023-03-11T12:47:19.673Z,97067.81
2023-03-11T12:49:46.215Z,97074.75
2023-03-11T12:52:12.651Z,97084.09
2023-03-11T12:54:38.963Z,97074.75
2023-03-11T12:57:05.563Z,97081.44
2023-03-11T12:59:31.995Z,97088.13
2023-03-11T13:01:58.350Z,97091.59
2023-03-11T13:04:24.823Z,97085.97
2023-03-11T13:06:51.185Z,97086.25
2023-03-11T13:09:17.633Z,97088.38
2023-03-11T13:11:44.101Z,97083.59
2023-03-11T13:14:10.442Z,97085.72
2023-03-11T13:16:36.803Z,97088.38
2023-03-11T13:19:03.272Z,97085.19
2023-03-11T13:21:29.652Z,97081.69
2023-03-11T13:23:56.166Z,97088.38
2023-03-11T13:26:22.464Z,97091.06
2023-03-11T13:28:48.754Z,97100.66
2023-03-11T13:31:15.129Z,97096.66
2023-03-11T13:33:41.473Z,97098.78
2023-03-11T13:36:07.809Z,97098.00
2023-03-11T13:38:34.169Z,97107.06
2023-03-11T13:41:02.652Z,97110.25
2023-03-11T13:43:28.990Z,97114.53
2023-03-11T13:45:55.485Z,97112.16
2023-03-11T13:48:21.842Z,97104.41
2023-03-11T13:50:48.199Z,97118.81
2023-03-11T13:53:14.568Z,97117.22
2023-03-11T13:55:40.952Z,97109.75
2023-03-11T13:58:07.263Z,97109.22
2023-03-11T14:00:33.599Z,97117.47
2023-03-11T14:03:00.020Z,97124.41
2023-03-11T14:05:26.448Z,97123.88
2023-03-11T14:07:52.905Z,97132.16
2023-03-11T14:10:19.329Z,97136.41
2023-03-11T14:12:46.184Z,97135.63
2023-03-11T14:15:12.667Z,97136.13
2023-03-11T14:17:39.213Z,97132.16
2023-03-11T14:20:05.658Z,97137.47
2023-03-11T14:22:32.124Z,97137.75
2023-03-11T14:24:58.395Z,97147.06
2023-03-11T14:27:24.806Z,97146.03
2023-03-11T14:29:51.196Z,97148.16
2023-03-11T14:32:17.632Z,97152.69
2023-03-11T14:34:44.060Z,97152.13
2023-03-11T14:37:10.387Z,97146.00
2023-03-11T14:39:36.731Z,97154.81
2023-03-11T14:42:03.291Z,97147.34
2023-03-11T14:44:29.806Z,97152.94
2023-03-11T14:46:56.192Z,97147.63
2023-03-11T14:49:22.579Z,97149.19
2023-03-11T14:51:49.000Z,97147.63
2023-03-11T14:54:15.342Z,97149.75
2023-03-11T14:56:41.803Z,97143.88
2023-03-11T14:59:10.520Z,97150.28
2023-03-11T15:01:37.961Z,97159.34
2023-03-11T15:04:04.441Z,97161.47
2023-03-11T15:06:30.902Z,97152.66
2023-03-11T15:08:57.388Z,97157.47
2023-03-11T15:11:23.810Z,97163.59
2023-03-11T15:13:50.455Z,97162.00
2023-03-11T15:16:16.827Z,97158.28
2023-03-11T15:18:45.352Z,97155.59
2023-03-11T15:21:11.684Z,97162.00
2023-03-11T15:23:38.384Z,97153.97
2023-03-11T15:26:04.793Z,97159.31
2023-03-11T15:28:31.240Z,97155.88
2023-03-11T15:30:57.690Z,97163.34
2023-03-11T15:33:24.114Z,97158.25
2023-03-11T15:35:50.605Z,97152.38
2023-03-11T15:38:17.662Z,97160.66
2023-03-11T15:40:46.019Z,97163.56
2023-03-11T15:43:12.520Z,97164.91
2023-03-11T15:45:38.842Z,97173.16
2023-03-11T15:48:05.172Z,97172.63
2023-03-11T15:50:46.672Z,97173.66
2023-03-11T15:53:16.991Z,97179.53
2023-03-11T15:55:44.247Z,97179.00
2023-03-11T15:58:10.530Z,97183.81
2023-03-11T16:00:36.873Z,97176.03
2023-03-11T16:03:03.260Z,97178.16
2023-03-11T16:05:31.658Z,97176.53
2023-03-11T16:07:57.981Z,97182.13
2023-03-11T16:10:24.479Z,97187.47
2023-03-11T16:12:50.852Z,97188.56
2023-03-11T16:15:17.338Z,97188.56
2023-03-11T16:17:49.652Z,97186.41
2023-03-11T16:20:16.647Z,97189.06
2023-03-11T16:22:43.097Z,97192.28
2023-03-11T16:25:09.340Z,97201.94
2023-03-11T16:27:36.226Z,97199.28
2023-03-11T16:30:02.979Z,97200.84
2023-03-11T16:32:29.358Z,97209.41
2023-03-11T16:34:55.772Z,97207.56
2023-03-11T16:37:22.056Z,97209.41
2023-03-11T16:39:48.356Z,97213.66
2023-03-11T16:42:14.709Z,97212.63
2023-03-11T16:44:41.069Z,97215.84
2023-03-11T16:47:07.432Z,97218.50
2023-03-11T16:49:33.763Z,97225.44
2023-03-11T16:52:00.111Z,97222.75
2023-03-11T16:54:26.489Z,97217.44
2023-03-11T16:56:52.767Z,97214.75
2023-03-11T16:59:19.171Z,97220.09
2023-03-11T17:01:45.535Z,97222.75
2023-03-11T17:04:11.894Z,97225.44
2023-03-11T17:06:38.434Z,97225.69
2023-03-11T17:09:04.722Z,97228.38
2023-03-11T17:11:31.051Z,97230.22
2023-03-11T17:14:10.095Z,97236.63
2023-03-11T17:16:43.449Z,97238.75
2023-03-11T17:19:09.796Z,97233.94
2023-03-11T17:21:36.309Z,97236.84
2023-03-11T17:24:02.717Z,97229.06
2023-03-11T17:26:29.107Z,97233.88
2023-03-11T17:28:56.567Z,97238.41
2023-03-11T17:31:22.859Z,97222.94
2023-03-11T17:33:49.285Z,97231.72
2023-03-11T17:36:15.591Z,97230.13
2023-03-11T17:38:42.014Z,97230.41
2023-03-11T17:41:08.386Z,97237.84
2023-03-11T17:43:34.830Z,97235.44
2023-03-11T17:46:01.130Z,97241.03
2023-03-11T17:48:27.965Z,97243.16
2023-03-11T17:50:54.278Z,97239.13
2023-03-11T17:53:22.407Z,97246.56
2023-03-11T17:55:48.720Z,97248.69
2023-03-11T17:58:15.147Z,97251.09
2023-03-11T18:00:41.768Z,97253.22
2023-03-11T18:03:08.195Z,97255.06
2023-03-11T18:05:34.705Z,97247.56
2023-03-11T18:08:01.059Z,97255.06
2023-03-11T18:10:27.364Z,97260.44
2023-03-11T18:12:53.753Z,97267.47
2023-03-11T18:15:20.149Z,97266.75
2023-03-11T18:17:46.627Z,97278.84
2023-03-11T18:20:12.958Z,97277.56
2023-03-11T18:22:42.060Z,97285.88
2023-03-11T18:25:10.697Z,97288.09
2023-03-11T18:27:37.196Z,97294.00
2023-03-11T18:30:13.477Z,97299.09
2023-03-11T18:32:39.954Z,97299.69
2023-03-11T18:35:06.358Z,97302.41
2023-03-11T18:37:32.698Z,97304.53
2023-03-11T18:39:58.943Z,97298.91
2023-03-11T18:42:25.275Z,97297.06
2023-03-11T18:44:51.637Z,97301.88
2023-03-11T18:47:18.050Z,97300.00
2023-03-11T18:49:44.349Z,97297.34
2023-03-11T18:52:10.671Z,97299.75
2023-03-11T18:54:37.034Z,97301.63
2023-03-11T18:57:03.297Z,97305.66
2023-03-11T18:59:29.599Z,97307.50
2023-03-11T19:01:56.223Z,97303.75
2023-03-11T19:04:22.660Z,97300.28
2023-03-11T19:06:49.016Z,97288.78
2023-03-11T19:09:15.398Z,97291.19
2023-03-11T19:11:41.789Z,97293.31
2023-03-11T19:14:08.196Z,97287.72
2023-03-11T19:16:34.516Z,97283.44
2023-03-11T19:19:00.872Z,97282.91
2023-03-11T19:21:27.147Z,97281.84
2023-03-11T19:23:53.661Z,97291.19
2023-03-11T19:26:21.028Z,97294.66
2023-03-11T19:28:50.289Z,97295.19
2023-03-11T19:31:16.549Z,97297.88
2023-03-11T19:33:42.837Z,97289.81
2023-03-11T19:36:09.441Z,97287.16
2023-03-11T19:38:35.730Z,97292.75
2023-03-11T19:41:02.044Z,97301.31
2023-03-11T19:43:28.318Z,97301.03
2023-03-11T19:45:54.776Z,97300.75
2023-03-11T19:48:21.161Z,97298.59
2023-03-11T19:50:47.631Z,97295.66
2023-03-11T19:53:14.116Z,97285.47
2023-03-11T19:55:40.504Z,97283.59
2023-03-11T19:58:06.998Z,97283.31
2023-03-11T20:00:33.432Z,97281.19
2023-03-11T20:02:59.809Z,97280.09
2023-03-11T20:05:26.245Z,97271.00
2023-03-11T20:07:52.606Z,97282.22
2023-03-11T20:10:20.872Z,97278.44
2023-03-11T20:13:01.501Z,97289.94
2023-03-11T20:15:28.701Z,97300.59
2023-03-11T20:17:55.050Z,97299.50
2023-03-11T20:20:21.516Z,97298.41
2023-03-11T20:22:48.071Z,97313.91
2023-03-11T20:25:14.469Z,97315.47
2023-03-11T20:27:41.043Z,97311.22
2023-03-11T20:30:07.531Z,97309.59
2023-03-11T20:32:33.941Z,97305.06
2023-03-11T20:35:00.460Z,97320.09
2023-03-11T20:37:27.034Z,97332.91
2023-03-11T20:39:53.687Z,97339.09
2023-03-11T20:42:20.103Z,97339.41
2023-03-11T20:44:46.741Z,97346.44
2023-03-11T20:47:13.353Z,97344.06
2023-03-11T20:49:42.785Z,97344.09
2023-03-11T20:52:09.116Z,97340.09
2023-03-11T20:54:35.604Z,97338.50
2023-03-11T20:57:01.963Z,97347.88
2023-03-11T20:59:28.428Z,97335.84
2023-03-11T21:01:54.823Z,97335.84
2023-03-11T21:04:21.425Z,97343.09
2023-03-11T21:06:47.744Z,97336.91
2023-03-11T21:09:14.129Z,97339.88
2023-03-11T21:11:40.469Z,97342.28
2023-03-11T21:14:06.862Z,97343.88
2023-03-11T21:16:33.396Z,97337.44
2023-03-11T21:18:59.970Z,97336.66
2023-03-11T21:21:26.688Z,97337.97
2023-03-11T21:23:53.189Z,97335.56
2023-03-11T21:26:19.586Z,97339.56
2023-03-11T21:28:46.326Z,97339.53
2023-03-11T21:31:13.089Z,97338.72
2023-03-11T21:33:41.502Z,97328.56
2023-03-11T21:36:08.006Z,97334.13
2023-03-11T21:38:34.627Z,97329.53
2023-03-11T21:41:02.345Z,97320.66
2023-03-11T21:43:31.340Z,97319.81
2023-03-11T21:45:57.844Z,97322.94
2023-03-11T21:48:24.585Z,97322.84
2023-03-11T21:50:51.115Z,97324.94
2023-03-11T21:53:17.735Z,97323.72
2023-03-11T21:55:44.268Z,97325.22
2023-03-11T21:58:10.795Z,97326.72
2023-03-11T22:00:37.435Z,97325.84
2023-03-11T22:03:04.095Z,97327.06
2023-03-11T22:05:30.576Z,97327.22
2023-03-11T22:07:57.065Z,97325.53
2023-03-11T22:10:26.529Z,97335.25
2023-03-11T22:12:53.183Z,97337.00
2023-03-11T22:15:20.970Z,97331.00
2023-03-11T22:17:47.554Z,97334.38
2023-03-11T22:20:14.020Z,97336.13
2023-03-11T22:22:40.490Z,97339.44
2023-03-11T22:25:07.243Z,97334.81
2023-03-11T22:27:33.660Z,97339.19
2023-03-11T22:30:00.104Z,97341.94
2023-03-11T22:32:26.657Z,97333.03
2023-03-11T22:34:53.226Z,97329.38
2023-03-11T22:37:19.575Z,97337.78
2023-03-11T22:39:46.484Z,97336.59
2023-03-11T22:42:13.010Z,97335.38
2023-03-11T22:44:39.384Z,97330.47
2023-03-11T22:47:07.259Z,97333.22
2023-03-11T22:49:33.701Z,97330.97
2023-03-11T22:52:00.217Z,97332.16
2023-03-11T22:54:26.784Z,97335.22
2023-03-11T22:56:53.126Z,97330.31
2023-03-11T22:59:19.552Z,97333.91
2023-03-11T23:01:45.968Z,97333.25
2023-03-11T23:04:12.363Z,97330.19
2023-03-11T23:06:38.767Z,97335.63
2023-03-11T23:09:05.328Z,97334.94
2023-03-11T23:11:33.847Z,97340.16
2023-03-11T23:14:00.354Z,97344.81
2023-03-11T23:16:26.815Z,97340.44
2023-03-11T23:18:53.235Z,97334.69
2023-03-11T23:21:19.599Z,97340.13
2023-03-11T23:23:46.071Z,97339.22
2023-03-11T23:26:12.745Z,97342.81
2023-03-11T23:28:39.165Z,97344.56
2023-03-11T23:31:05.435Z,97335.94
2023-03-11T23:33:31.852Z,97346.44
2023-03-11T23:35:58.243Z,97348.94
2023-03-11T23:38:24.658Z,97347.25
2023-03-11T23:40:51.140Z,97348.97
2023-03-11T23:43:17.613Z,97344.38
2023-03-11T23:45:46.860Z,97348.53
2023-03-11T23:48:13.298Z,97352.66
2023-03-11T23:50:39.729Z,97346.25
2023-03-11T23:53:06.153Z,97346.69
2023-03-11T23:55:32.672Z,97355.09
2023-03-11T23:57:59.124Z,97360.59
